Time;durP1;ratioP1;P1;durP2;ratioP2;P2;SDS_P1;SDS_P2;PMS_P1;PMS_P2;Temp;Humidity;BMP_temperature;BMP_pressure;BME280_temperature;BME280_humidity;BME280_pressure;Samples;Min_cycle;Max_cycle;Signal;HPM_P1;HPM_P2
2022/03/13 00:02:23;;;;;;;23.52;11.98;;;2.70;40.00;;;;;;5066516;28;20659;-63
2022/03/13 00:04:51;;;;;;;22.52;11.45;;;2.60;39.90;;;;;;5070256;28;20220;-64
2022/03/13 00:07:19;;;;;;;20.88;13.70;;;2.60;40.30;;;;;;5069225;28;20236;-64
2022/03/13 00:09:50;;;;;;;33.53;14.73;;;2.50;40.40;;;;;;5065962;28;20590;-64
2022/03/13 00:12:29;;;;;;;22.45;13.70;;;2.50;40.80;;;;;;5069418;28;20194;-63
2022/03/13 00:14:58;;;;;;;28.00;17.80;;;2.40;40.70;;;;;;5069822;28;20326;-63
2022/03/13 00:17:29;;;;;;;31.08;15.13;;;2.40;41.00;;;;;;5069591;28;20257;-65
2022/03/13 00:19:59;;;;;;;27.88;14.32;;;2.40;40.90;;;;;;5069726;28;20275;-65
2022/03/13 00:22:26;;;;;;;26.70;14.20;;;2.40;40.80;;;;;;5068885;28;20190;-63
2022/03/13 00:24:56;;;;;;;19.67;14.40;;;2.30;41.20;;;;;;5069554;28;20205;-63
2022/03/13 00:27:23;;;;;;;31.90;15.40;;;2.30;41.60;;;;;;5069258;28;20186;-63
2022/03/13 00:29:50;;;;;;;19.17;12.90;;;2.40;41.50;;;;;;5069477;28;20193;-63
2022/03/13 00:32:18;;;;;;;20.92;12.20;;;2.40;41.50;;;;;;5068860;28;20222;-63
2022/03/13 00:34:45;;;;;;;23.10;13.75;;;2.50;41.20;;;;;;5069665;28;20721;-63
2022/03/13 00:37:12;;;;;;;21.02;11.85;;;2.50;41.20;;;;;;5069097;28;20218;-62
2022/03/13 00:39:40;;;;;;;17.80;11.30;;;2.60;41.10;;;;;;5069525;28;20331;-62
2022/03/13 00:42:09;;;;;;;20.77;13.50;;;2.50;40.80;;;;;;5072855;28;20206;-62
2022/03/13 00:44:36;;;;;;;19.25;10.93;;;2.50;41.00;;;;;;5073334;28;20190;-61
2022/03/13 00:47:05;;;;;;;20.13;11.77;;;2.50;40.90;;;;;;5072642;28;20194;-62
2022/03/13 00:49:32;;;;;;;21.88;14.93;;;2.50;40.80;;;;;;5069199;28;20258;-62
2022/03/13 00:52:00;;;;;;;25.40;13.70;;;2.40;40.70;;;;;;5072732;28;20225;-61
2022/03/13 00:54:28;;;;;;;22.48;13.07;;;2.20;41.00;;;;;;5072612;28;20235;-61
2022/03/13 00:56:55;;;;;;;28.55;14.93;;;2.10;41.50;;;;;;5072251;28;20300;-61
2022/03/13 00:59:23;;;;;;;24.25;13.00;;;2.00;41.30;;;;;;5073054;28;20589;-61
2022/03/13 01:01:51;;;;;;;26.70;11.95;;;1.90;41.80;;;;;;5072534;28;20186;-62
2022/03/13 01:04:18;;;;;;;22.63;12.00;;;1.90;42.00;;;;;;5072989;28;20193;-60
2022/03/13 01:06:46;;;;;;;26.23;12.43;;;1.90;42.10;;;;;;5072259;28;20178;-61
2022/03/13 01:09:13;;;;;;;22.13;11.70;;;1.90;41.90;;;;;;5072684;28;20190;-61
2022/03/13 01:11:41;;;;;;;23.38;14.50;;;1.90;41.90;;;;;;5071769;28;20650;-61
2022/03/13 01:14:08;;;;;;;25.23;11.90;;;1.90;42.10;;;;;;5072432;28;20284;-62
2022/03/13 01:16:39;;;;;;;21.60;13.27;;;1.90;42.80;;;;;;5068077;28;20216;-61
2022/03/13 01:19:06;;;;;;;24.70;11.85;;;2.00;42.40;;;;;;5072466;28;20266;-61
2022/03/13 01:21:38;;;;;;;18.30;12.27;;;1.90;42.80;;;;;;5072135;28;20660;-61
2022/03/13 01:24:43;;;;;;;19.55;11.52;;;1.80;42.40;;;;;;5068536;28;20227;-61
2022/03/13 01:27:11;;;;;;;25.17;12.45;;;1.70;42.30;;;;;;5009842;28;20195;-61
2022/03/13 01:29:39;;;;;;;20.40;11.73;;;1.60;43.20;;;;;;5010072;28;20667;-63
2022/03/13 01:32:10;;;;;;;26.55;13.48;;;1.60;43.50;;;;;;5039730;28;20194;-61
2022/03/13 01:34:46;;;;;;;25.55;12.23;;;1.60;43.60;;;;;;5072133;28;20740;-61
2022/03/13 01:37:19;;;;;;;24.85;13.63;;;1.60;43.60;;;;;;5071472;28;20317;-62
2022/03/13 01:39:46;;;;;;;23.60;13.82;;;1.60;43.30;;;;;;5072218;28;20193;-61
2022/03/13 01:42:13;;;;;;;20.60;13.00;;;1.60;43.50;;;;;;5071834;28;20584;-61
2022/03/13 01:44:40;;;;;;;24.38;13.05;;;1.60;43.80;;;;;;5071068;28;20196;-65
2022/03/13 01:47:09;;;;;;;25.00;13.30;;;1.60;43.60;;;;;;5071912;28;20632;-63
2022/03/13 01:49:36;;;;;;;27.50;14.63;;;1.60;43.80;;;;;;5071778;28;20204;-64
2022/03/13 01:52:04;;;;;;;26.25;13.43;;;1.60;43.20;;;;;;5072021;28;20198;-63
2022/03/13 01:54:31;;;;;;;22.05;12.93;;;1.50;43.00;;;;;;5071111;28;20194;-64
2022/03/13 01:57:00;;;;;;;26.00;13.80;;;1.50;43.40;;;;;;5068263;28;20218;-63
2022/03/13 01:59:28;;;;;;;24.40;14.30;;;1.50;42.90;;;;;;5071964;28;20651;-63
2022/03/13 02:01:56;;;;;;;27.42;12.90;;;1.40;43.10;;;;;;5071482;28;20182;-63
2022/03/13 02:04:27;;;;;;;21.02;12.65;;;1.40;43.60;;;;;;5067410;28;20236;-64
2022/03/13 02:06:58;;;;;;;18.67;11.18;;;1.30;43.70;;;;;;5070748;28;20624;-63
2022/03/13 02:09:27;;;;;;;18.38;10.52;;;1.20;43.60;;;;;;5072492;28;20189;-63
2022/03/13 02:11:54;;;;;;;18.67;11.45;;;1.20;43.70;;;;;;5072565;28;20702;-64
2022/03/13 02:14:23;;;;;;;24.35;11.77;;;1.00;44.10;;;;;;5072887;28;20556;-64
2022/03/13 02:16:51;;;;;;;19.73;11.43;;;0.90;44.10;;;;;;5072324;28;20216;-63
2022/03/13 02:19:18;;;;;;;20.95;11.40;;;0.90;44.20;;;;;;5072855;28;20182;-63
2022/03/13 02:21:50;;;;;;;16.15;10.40;;;1.00;44.60;;;;;;5072817;28;20273;-65
2022/03/13 02:24:24;;;;;;;17.58;12.05;;;1.00;44.80;;;;;;5072447;28;20251;-63
2022/03/13 02:26:59;;;;;;;19.35;10.50;;;1.00;44.70;;;;;;5072895;28;20552;-63
2022/03/13 02:29:26;;;;;;;20.65;11.30;;;1.00;44.50;;;;;;5072513;28;20189;-63
2022/03/13 02:31:54;;;;;;;27.15;13.95;;;1.00;45.20;;;;;;5072525;28;20280;-63
2022/03/13 02:34:21;;;;;;;22.77;11.02;;;1.00;45.80;;;;;;5072483;28;20186;-63
2022/03/13 02:36:57;;;;;;;18.00;11.52;;;1.00;45.60;;;;;;5071945;28;20197;-65
2022/03/13 02:39:26;;;;;;;20.40;11.10;;;0.90;45.10;;;;;;5072145;28;20186;-63
2022/03/13 02:41:53;;;;;;;19.17;12.48;;;0.90;45.70;;;;;;5072830;28;20186;-63
2022/03/13 02:44:20;;;;;;;18.50;10.60;;;0.90;45.50;;;;;;5072261;28;20185;-64
2022/03/13 02:46:56;;;;;;;17.92;11.02;;;0.90;45.30;;;;;;5071857;28;20645;-64
2022/03/13 02:49:25;;;;;;;17.70;9.95;;;0.90;45.20;;;;;;5072423;28;20243;-64
2022/03/13 02:51:54;;;;;;;25.23;11.50;;;0.80;45.30;;;;;;5071962;28;20212;-64
2022/03/13 02:54:22;;;;;;;22.67;13.25;;;0.80;45.30;;;;;;5072173;28;20198;-64
2022/03/13 02:56:51;;;;;;;20.90;12.15;;;0.80;45.30;;;;;;5071641;28;20190;-63
2022/03/13 02:59:20;;;;;;;18.25;10.65;;;0.70;45.80;;;;;;5071646;28;20181;-65
2022/03/13 03:01:47;;;;;;;21.42;11.07;;;0.70;45.80;;;;;;5072224;28;20583;-64
2022/03/13 03:04:16;;;;;;;21.30;11.60;;;0.70;46.00;;;;;;5071440;28;20186;-64
2022/03/13 03:06:54;;;;;;;17.73;10.50;;;0.70;46.10;;;;;;5071850;28;20189;-64
2022/03/13 03:09:21;;;;;;;18.40;10.30;;;0.70;45.60;;;;;;5071841;28;20185;-64
2022/03/13 03:11:50;;;;;;;14.88;9.15;;;0.70;45.80;;;;;;5071554;28;20595;-64
2022/03/13 03:14:17;;;;;;;17.48;10.52;;;0.70;45.60;;;;;;5071624;28;20190;-63
2022/03/13 03:16:45;;;;;;;17.63;10.35;;;0.70;45.90;;;;;;5071745;28;20561;-64
2022/03/13 03:19:12;;;;;;;17.60;9.48;;;0.70;45.80;;;;;;5071650;28;20194;-64
2022/03/13 03:21:39;;;;;;;17.55;10.32;;;0.70;45.40;;;;;;5071956;28;20602;-64
2022/03/13 03:24:18;;;;;;;17.80;9.80;;;0.70;45.60;;;;;;5071501;28;20254;-64
2022/03/13 03:26:45;;;;;;;18.30;10.60;;;0.70;46.10;;;;;;5072233;28;20177;-64
2022/03/13 03:29:14;;;;;;;15.60;9.30;;;0.80;46.30;;;;;;5071333;28;20189;-65
2022/03/13 03:31:44;;;;;;;16.77;10.52;;;0.80;46.70;;;;;;5071925;28;20640;-63
2022/03/13 03:34:13;;;;;;;15.50;10.02;;;0.90;46.80;;;;;;5071858;28;20217;-63
2022/03/13 03:36:43;;;;;;;18.02;10.52;;;0.90;46.50;;;;;;5071838;28;20618;-64
2022/03/13 03:39:10;;;;;;;24.13;12.45;;;0.80;46.00;;;;;;5071742;28;20193;-64
2022/03/13 03:41:38;;;;;;;18.77;11.10;;;0.80;46.50;;;;;;5071070;28;20194;-64
2022/03/13 03:44:06;;;;;;;19.13;10.57;;;0.70;45.90;;;;;;5071710;28;20227;-65
2022/03/13 03:46:35;;;;;;;16.67;10.48;;;0.70;46.20;;;;;;5071708;28;20276;-64
2022/03/13 03:49:03;;;;;;;19.63;10.77;;;0.70;46.20;;;;;;5071048;28;20218;-64
2022/03/13 03:51:30;;;;;;;15.52;11.10;;;0.60;45.60;;;;;;5071725;28;20583;-63
2022/03/13 03:53:57;;;;;;;19.35;10.32;;;0.50;45.70;;;;;;5071651;28;20194;-63
2022/03/13 03:56:24;;;;;;;15.75;10.70;;;0.40;45.40;;;;;;5071093;28;20190;-64
2022/03/13 03:58:51;;;;;;;15.45;8.75;;;0.30;45.20;;;;;;5071719;28;20714;-63
2022/03/13 04:01:18;;;;;;;16.58;10.95;;;0.30;45.50;;;;;;5071397;28;20186;-64
2022/03/13 04:03:47;;;;;;;14.95;9.68;;;0.30;45.50;;;;;;5071744;28;20185;-63
2022/03/13 04:06:14;;;;;;;16.73;9.70;;;0.30;46.10;;;;;;5071730;28;20189;-63
2022/03/13 04:08:41;;;;;;;18.38;10.45;;;0.30;46.10;;;;;;5071449;28;20213;-66
2022/03/13 04:11:08;;;;;;;20.88;10.00;;;0.30;46.20;;;;;;5071442;28;20297;-63
2022/03/13 04:13:38;;;;;;;17.83;10.90;;;0.30;46.50;;;;;;5071904;28;20247;-64
2022/03/13 04:16:08;;;;;;;19.77;11.35;;;0.30;47.20;;;;;;5073679;28;20243;-64
2022/03/13 04:18:35;;;;;;;16.98;11.30;;;0.20;47.80;;;;;;5075385;28;20190;-65
2022/03/13 04:21:05;;;;;;;17.92;11.00;;;0.20;47.70;;;;;;5075491;28;20185;-63
2022/03/13 04:23:33;;;;;;;18.65;10.70;;;0.20;47.40;;;;;;5075348;28;20197;-64
2022/03/13 04:26:00;;;;;;;13.57;9.68;;;0.10;47.30;;;;;;5075075;28;20200;-63
2022/03/13 04:28:27;;;;;;;16.92;9.52;;;0.00;46.90;;;;;;5075140;28;20252;-63
2022/03/13 04:30:59;;;;;;;16.40;10.25;;;-0.10;45.40;;;;;;5075137;28;20193;-63
2022/03/13 04:33:27;;;;;;;20.15;10.10;;;-0.20;45.60;;;;;;5075100;28;20228;-65
2022/03/13 04:36:00;;;;;;;19.10;11.82;;;-0.20;46.30;;;;;;5074968;28;20197;-64
2022/03/13 04:38:29;;;;;;;22.60;11.05;;;-0.20;46.60;;;;;;5075151;28;20552;-64
2022/03/13 04:40:58;;;;;;;19.75;12.23;;;-0.20;47.20;;;;;;5074416;28;20186;-64
2022/03/13 04:43:26;;;;;;;18.90;11.70;;;-0.20;47.80;;;;;;5074861;28;20540;-63
2022/03/13 04:45:53;;;;;;;15.63;9.80;;;-0.20;47.70;;;;;;5074402;28;20192;-64
2022/03/13 04:48:21;;;;;;;14.35;10.18;;;-0.20;47.80;;;;;;5074903;28;20306;-63
2022/03/13 04:50:48;;;;;;;16.15;10.43;;;-0.20;46.80;;;;;;5074514;28;20553;-63
2022/03/13 04:53:16;;;;;;;15.68;9.95;;;-0.20;46.50;;;;;;5074887;28;20247;-64
2022/03/13 04:55:44;;;;;;;21.73;12.35;;;-0.20;46.60;;;;;;5074276;28;20190;-64
2022/03/13 04:58:11;;;;;;;22.17;13.95;;;-0.20;47.20;;;;;;5074894;28;20280;-64
2022/03/13 05:00:39;;;;;;;27.98;14.73;;;-0.20;47.00;;;;;;5074136;28;20182;-63
2022/03/13 05:03:07;;;;;;;26.85;14.70;;;-0.30;47.10;;;;;;5074772;28;20198;-64
2022/03/13 05:05:36;;;;;;;20.65;12.75;;;-0.30;47.10;;;;;;5074124;28;20220;-65
2022/03/13 05:08:05;;;;;;;19.70;12.88;;;-0.40;47.50;;;;;;5074027;28;20217;-66
2022/03/13 05:10:36;;;;;;;24.25;13.18;;;-0.40;48.10;;;;;;5074550;28;20550;-64
2022/03/13 05:13:07;;;;;;;20.15;10.80;;;-0.40;48.80;;;;;;5074391;28;20575;-67
2022/03/13 05:15:36;;;;;;;21.98;12.55;;;-0.40;48.70;;;;;;5054514;28;20194;-64
2022/03/13 05:18:03;;;;;;;18.67;12.48;;;-0.40;49.10;;;;;;5054602;28;20210;-63
2022/03/13 05:20:31;;;;;;;21.25;12.45;;;-0.50;49.40;;;;;;5073796;28;20194;-63
2022/03/13 05:22:58;;;;;;;19.05;11.23;;;-0.50;49.60;;;;;;5074240;28;20489;-64
2022/03/13 05:25:29;;;;;;;18.48;11.43;;;-0.40;49.80;;;;;;5074513;28;20255;-63
2022/03/13 05:27:56;;;;;;;18.27;11.00;;;-0.40;49.70;;;;;;5073804;28;20312;-63
2022/03/13 05:30:25;;;;;;;22.48;12.20;;;-0.40;50.00;;;;;;5074325;28;20206;-63
2022/03/13 05:32:52;;;;;;;19.83;11.52;;;-0.50;50.40;;;;;;5073708;28;20221;-64
2022/03/13 05:35:19;;;;;;;20.70;10.48;;;-0.40;51.60;;;;;;5074233;28;20197;-64
2022/03/13 05:37:46;;;;;;;16.50;10.75;;;-0.40;51.30;;;;;;5073573;28;20185;-63
2022/03/13 05:40:16;;;;;;;16.52;10.45;;;-0.50;51.30;;;;;;5074007;28;20186;-63
2022/03/13 05:42:45;;;;;;;18.58;10.82;;;-0.50;51.30;;;;;;5073782;28;20185;-63
2022/03/13 05:45:15;;;;;;;20.45;11.20;;;-0.50;51.20;;;;;;5074254;28;20572;-64
2022/03/13 05:47:48;;;;;;;18.02;11.30;;;-0.50;51.00;;;;;;5073482;28;20178;-64
2022/03/13 05:50:16;;;;;;;22.25;11.68;;;-0.50;51.10;;;;;;5073993;28;20660;-64
2022/03/13 05:52:45;;;;;;;20.05;11.27;;;-0.40;51.10;;;;;;5073547;28;20190;-64
2022/03/13 05:55:13;;;;;;;16.20;11.02;;;-0.40;51.00;;;;;;5073354;28;20196;-63
2022/03/13 05:57:40;;;;;;;20.77;11.43;;;-0.30;51.80;;;;;;5073153;28;20186;-65
2022/03/13 06:00:10;;;;;;;17.42;11.30;;;-0.30;51.70;;;;;;5073887;28;20263;-65
2022/03/13 06:02:38;;;;;;;15.88;10.50;;;-0.20;51.40;;;;;;5073353;28;20267;-64
2022/03/13 06:05:10;;;;;;;20.38;12.80;;;-0.10;51.40;;;;;;5053841;28;20198;-64
2022/03/13 06:07:38;;;;;;;18.75;10.80;;;0.00;51.60;;;;;;5054360;28;20195;-64
2022/03/13 06:10:06;;;;;;;19.42;11.45;;;0.10;51.40;;;;;;5073143;28;20182;-64
2022/03/13 06:12:34;;;;;;;18.25;11.55;;;0.20;51.50;;;;;;5073578;28;20197;-63
2022/03/13 06:15:02;;;;;;;23.67;11.65;;;0.30;51.20;;;;;;5073121;28;20185;-64
2022/03/13 06:17:29;;;;;;;22.13;12.05;;;0.30;51.00;;;;;;5073515;28;20647;-64
2022/03/13 06:19:56;;;;;;;17.83;10.80;;;0.40;51.10;;;;;;5072783;28;20185;-64
2022/03/13 06:22:25;;;;;;;19.73;11.23;;;0.50;51.10;;;;;;5073530;28;20270;-63
2022/03/13 06:24:52;;;;;;;16.63;10.68;;;0.70;50.90;;;;;;5072354;28;20186;-64
2022/03/13 06:27:21;;;;;;;18.98;11.95;;;0.60;51.10;;;;;;5073026;28;20192;-64
2022/03/13 06:29:48;;;;;;;22.90;10.98;;;0.70;51.00;;;;;;5073139;28;20217;-63
2022/03/13 06:32:16;;;;;;;18.00;10.63;;;0.90;51.00;;;;;;5072600;28;20217;-64
2022/03/13 06:34:43;;;;;;;19.27;11.35;;;1.10;50.60;;;;;;5072847;28;20594;-64
2022/03/13 06:37:10;;;;;;;20.67;12.18;;;1.20;50.80;;;;;;5072885;28;20197;-63
2022/03/13 06:39:38;;;;;;;16.85;10.70;;;1.40;50.40;;;;;;5071962;28;20678;-64
2022/03/13 06:42:06;;;;;;;15.05;10.43;;;1.50;50.20;;;;;;5072895;28;20197;-64
2022/03/13 06:44:35;;;;;;;16.90;11.20;;;1.70;49.80;;;;;;5072694;28;20559;-64
2022/03/13 06:47:02;;;;;;;14.68;10.20;;;2.00;49.80;;;;;;5072896;28;20545;-64
2022/03/13 06:49:29;;;;;;;18.00;11.40;;;2.20;49.70;;;;;;5072376;28;20217;-63
2022/03/13 06:51:56;;;;;;;18.83;11.13;;;2.50;49.70;;;;;;5072889;28;20194;-63
2022/03/13 06:54:23;;;;;;;20.23;12.57;;;2.80;49.30;;;;;;5072667;28;20239;-69
2022/03/13 06:56:52;;;;;;;16.77;10.70;;;3.30;48.60;;;;;;5072339;28;20197;-64
2022/03/13 06:59:23;;;;;;;18.45;11.57;;;3.70;47.10;;;;;;5072695;28;20251;-64
2022/03/13 07:01:51;;;;;;;17.83;11.27;;;4.30;46.40;;;;;;5072397;28;20207;-64
2022/03/13 07:04:18;;;;;;;22.10;11.93;;;4.90;45.40;;;;;;5072761;28;20190;-64
2022/03/13 07:06:45;;;;;;;17.80;11.85;;;5.70;42.90;;;;;;5072031;28;20185;-64
2022/03/13 07:09:12;;;;;;;15.43;11.13;;;6.60;42.20;;;;;;5072049;28;20688;-64
2022/03/13 07:11:42;;;;;;;19.90;12.95;;;7.70;40.30;;;;;;5072238;28;20189;-65
2022/03/13 07:14:11;;;;;;;22.33;11.93;;;9.20;37.00;;;;;;5072123;28;20326;-66
2022/03/13 07:16:38;;;;;;;24.00;13.13;;;10.90;34.60;;;;;;5052443;28;20193;-62
2022/03/13 07:19:06;;;;;;;20.65;14.05;;;12.30;31.90;;;;;;5052275;28;20248;-62
2022/03/13 07:21:33;;;;;;;18.73;12.43;;;13.60;29.20;;;;;;5070792;28;20181;-64
2022/03/13 07:24:00;;;;;;;18.35;13.45;;;14.80;27.50;;;;;;5071923;28;20198;-62
2022/03/13 07:26:27;;;;;;;16.65;13.27;;;15.90;26.70;;;;;;5072020;28;20672;-62
2022/03/13 07:28:54;;;;;;;18.10;14.50;;;17.20;25.00;;;;;;5072226;28;20228;-63
2022/03/13 07:31:22;;;;;;;18.88;14.38;;;18.50;22.90;;;;;;5072170;28;20190;-63
2022/03/13 07:33:49;;;;;;;17.73;13.48;;;19.80;22.50;;;;;;5072100;28;20287;-62
2022/03/13 07:36:16;;;;;;;17.90;13.93;;;21.20;21.70;;;;;;5071988;28;20584;-63
2022/03/13 07:38:44;;;;;;;18.00;16.10;;;22.40;20.20;;;;;;5072322;28;20443;-63
2022/03/13 07:41:12;;;;;;;16.97;15.17;;;23.50;18.90;;;;;;5071412;28;20440;-63
2022/03/13 07:43:40;;;;;;;18.70;15.20;;;24.50;18.20;;;;;;5072011;28;20954;-63
2022/03/13 07:46:08;;;;;;;17.87;15.63;;;25.40;17.80;;;;;;5071848;28;20499;-63
2022/03/13 07:48:36;;;;;;;19.40;14.57;;;26.20;15.30;;;;;;5071655;28;20489;-64
2022/03/13 07:51:04;;;;;;;14.87;13.30;;;26.80;15.60;;;;;;5076075;28;20436;-63
2022/03/13 07:53:31;;;;;;;16.00;13.87;;;27.70;15.50;;;;;;5076075;28;20451;-65
2022/03/13 07:55:58;;;;;;;16.43;14.53;;;28.50;14.60;;;;;;5076064;28;20460;-63
2022/03/13 07:58:26;;;;;;;17.50;14.90;;;29.20;14.20;;;;;;5076013;28;20990;-64
2022/03/13 08:00:53;;;;;;;15.10;13.33;;;30.00;12.70;;;;;;5075512;28;20432;-63
2022/03/13 08:03:24;;;;;;;15.47;12.63;;;30.50;12.40;;;;;;5076070;28;20431;-63
2022/03/13 08:05:52;;;;;;;17.00;13.40;;;31.10;11.30;;;;;;5075641;28;20528;-63
2022/03/13 08:08:20;;;;;;;15.50;13.87;;;31.60;11.40;;;;;;5076029;28;20435;-63
2022/03/13 08:10:46;;;;;;;18.33;13.70;;;32.20;11.30;;;;;;5075590;28;20501;-64
2022/03/13 08:13:14;;;;;;;14.80;13.30;;;32.90;11.20;;;;;;5075988;28;20447;-63
2022/03/13 08:15:41;;;;;;;14.23;12.73;;;33.70;10.90;;;;;;5075349;28;20511;-64
2022/03/13 08:18:09;;;;;;;13.40;12.23;;;34.30;10.10;;;;;;5075890;28;20447;-63
2022/03/13 08:20:37;;;;;;;15.23;12.17;;;35.00;10.20;;;;;;5072455;28;20475;-64
2022/03/13 08:23:05;;;;;;;14.57;13.07;;;35.40;8.90;;;;;;5073379;28;20436;-65
2022/03/13 08:25:53;;;;;;;13.77;12.47;;;35.70;9.00;;;;;;5068994;28;20929;-64
2022/03/13 08:28:22;;;;;;;13.83;12.40;;;36.50;8.70;;;;;;5066813;28;20539;-64
2022/03/13 08:30:49;;;;;;;14.20;12.50;;;37.10;8.50;;;;;;5073421;28;20466;-66
2022/03/13 08:33:16;;;;;;;14.20;12.80;;;37.70;8.50;;;;;;5073749;28;20498;-64
2022/03/13 08:35:43;;;;;;;14.10;12.80;;;38.40;8.30;;;;;;5073305;28;20898;-64
2022/03/13 08:38:11;;;;;;;14.10;12.70;;;38.90;7.80;;;;;;5073612;28;20448;-64
2022/03/13 08:40:38;;;;;;;12.63;11.43;;;39.50;7.70;;;;;;5073150;28;20479;-65
2022/03/13 08:43:06;;;;;;;13.70;12.30;;;40.00;7.00;;;;;;5074191;28;20439;-64
2022/03/13 08:45:33;;;;;;;12.43;11.33;;;40.70;6.50;;;;;;5073359;28;20531;-65
2022/03/13 08:48:00;;;;;;;19.57;11.70;;;41.10;6.50;;;;;;5069555;28;20444;-64
2022/03/13 08:50:27;;;;;;;13.00;11.80;;;41.40;5.80;;;;;;5073370;28;20497;-64
2022/03/13 08:52:56;;;;;;;12.70;11.53;;;41.60;6.20;;;;;;5073430;28;20807;-64
2022/03/13 08:55:25;;;;;;;14.00;11.10;;;42.10;6.50;;;;;;5072692;28;20432;-65
2022/03/13 08:57:52;;;;;;;13.47;10.20;;;42.60;5.70;;;;;;5066269;28;20466;-64
2022/03/13 09:00:21;;;;;;;11.20;10.20;;;43.30;6.30;;;;;;5072195;28;20444;-64
2022/03/13 09:02:50;;;;;;;13.33;12.10;;;43.90;5.30;;;;;;5072777;28;20440;-66
2022/03/13 09:05:17;;;;;;;11.93;10.60;;;44.40;5.10;;;;;;5068571;28;20865;-64
2022/03/13 09:07:44;;;;;;;11.17;10.03;;;44.80;4.90;;;;;;5071507;28;20856;-64
2022/03/13 09:10:12;;;;;;;10.50;9.50;;;45.10;4.10;;;;;;5072532;28;20833;-64
2022/03/13 09:12:41;;;;;;;10.53;9.53;;;45.30;5.00;;;;;;5072494;28;20557;-65
2022/03/13 09:15:09;;;;;;;9.70;8.73;;;45.80;4.60;;;;;;5073308;28;20558;-65
2022/03/13 09:17:36;;;;;;;12.43;11.33;;;46.30;3.70;;;;;;5072810;28;20746;-64
2022/03/13 09:20:04;;;;;;;11.00;10.03;;;46.70;4.20;;;;;;5072843;28;20436;-65
2022/03/13 09:22:32;;;;;;;11.10;10.10;;;47.20;3.90;;;;;;5072352;28;20777;-64
2022/03/13 09:24:59;;;;;;;12.17;11.17;;;47.70;3.60;;;;;;5072866;28;20498;-64
2022/03/13 09:27:27;;;;;;;12.20;10.93;;;48.10;3.40;;;;;;5072816;28;20472;-64
2022/03/13 09:29:59;;;;;;;11.03;10.03;;;48.50;3.60;;;;;;5072843;28;20480;-64
2022/03/13 09:32:27;;;;;;;13.90;9.43;;;48.90;3.30;;;;;;5068275;28;20465;-65
2022/03/13 09:34:55;;;;;;;11.57;10.57;;;49.20;2.90;;;;;;5073173;28;20448;-64
2022/03/13 09:37:23;;;;;;;11.37;10.27;;;49.30;2.90;;;;;;5072241;28;20436;-65
2022/03/13 09:39:51;;;;;;;10.90;9.83;;;49.70;2.60;;;;;;5070933;28;20432;-65
2022/03/13 09:42:18;;;;;;;11.30;10.20;;;49.80;2.70;;;;;;5072209;28;20437;-64
2022/03/13 09:44:45;;;;;;;10.90;9.87;;;50.20;2.50;;;;;;5072913;28;20444;-65
2022/03/13 09:47:14;;;;;;;10.70;9.60;;;50.60;2.50;;;;;;5072496;28;20524;-66
2022/03/13 09:49:41;;;;;;;10.03;9.13;;;50.90;2.20;;;;;;5072129;28;20481;-65
2022/03/13 09:52:08;;;;;;;11.23;10.23;;;51.20;2.20;;;;;;5072341;28;20497;-64
2022/03/13 09:54:35;;;;;;;12.20;11.00;;;51.30;2.00;;;;;;5072792;28;20472;-65
2022/03/13 09:57:04;;;;;;;10.73;9.83;;;51.40;1.90;;;;;;5071878;28;20440;-66
2022/03/13 09:59:33;;;;;;;12.87;11.67;;;51.60;2.10;;;;;;5072898;28;20451;-64
2022/03/13 10:02:00;;;;;;;10.63;9.73;;;51.90;1.80;;;;;;5072076;28;20432;-65
2022/03/13 10:04:28;;;;;;;10.43;9.63;;;52.10;1.70;;;;;;5070917;28;20436;-65
2022/03/13 10:07:06;;;;;;;10.80;9.90;;;52.30;1.30;;;;;;5072054;28;20432;-63
2022/03/13 10:09:35;;;;;;;11.67;10.67;;;52.50;1.40;;;;;;5069195;28;20479;-63
2022/03/13 10:12:08;;;;;;;9.90;9.10;;;52.40;1.20;;;;;;5071332;28;20938;-63
2022/03/13 10:14:36;;;;;;;10.80;9.70;;;52.80;1.10;;;;;;5070477;28;20482;-63
2022/03/13 10:17:05;;;;;;;11.87;10.77;;;53.00;1.00;;;;;;5071972;28;20436;-63
2022/03/13 10:19:33;;;;;;;11.70;10.53;;;53.00;1.00;;;;;;5071093;28;20520;-64
2022/03/13 10:22:05;;;;;;;8.93;8.13;;;53.20;1.00;;;;;;5071647;28;20464;-63
2022/03/13 10:24:40;;;;;;;10.47;9.57;;;52.90;1.00;;;;;;5071814;28;20505;-63
2022/03/13 10:27:12;;;;;;;8.40;7.60;;;52.50;1.00;;;;;;5066384;28;20436;-63
2022/03/13 10:29:42;;;;;;;9.80;8.90;;;52.40;1.00;;;;;;5072127;28;20558;-62
2022/03/13 10:32:09;;;;;;;9.97;9.07;;;51.80;1.00;;;;;;5071556;28;20468;-64
2022/03/13 10:34:38;;;;;;;10.80;9.80;;;51.50;1.00;;;;;;5068429;28;20436;-64
2022/03/13 10:37:06;;;;;;;10.73;9.73;;;51.30;1.00;;;;;;5071138;28;20469;-63
2022/03/13 10:39:34;;;;;;;10.73;9.60;;;51.50;1.30;;;;;;5071600;28;20921;-62
2022/03/13 10:42:03;;;;;;;8.27;7.53;;;51.90;1.00;;;;;;5071447;28;20528;-63
2022/03/13 10:44:34;;;;;;;7.93;7.23;;;52.30;1.00;;;;;;5071089;28;20440;-62
2022/03/13 10:47:05;;;;;;;8.00;7.30;;;52.80;1.00;;;;;;5070840;28;20813;-63
2022/03/13 10:49:43;;;;;;;7.00;6.10;;;53.40;1.00;;;;;;5070819;28;20529;-64
2022/03/13 10:52:29;;;;;;;8.20;7.50;;;53.50;1.00;;;;;;5071412;28;20494;-62
2022/03/13 10:54:57;;;;;;;7.30;6.63;;;53.70;1.00;;;;;;5064883;28;20462;-63
2022/03/13 10:57:24;;;;;;;7.70;7.00;;;54.10;1.00;;;;;;5071171;28;20444;-63
2022/03/13 11:00:09;;;;;;;7.30;6.60;;;53.80;1.00;;;;;;5070520;28;20447;-63
2022/03/13 11:02:37;;;;;;;9.80;6.57;;;53.60;1.00;;;;;;5071138;28;20439;-63
2022/03/13 11:05:06;;;;;;;5.90;5.30;;;53.90;1.00;;;;;;5070605;28;20440;-63
2022/03/13 11:07:33;;;;;;;6.33;5.73;;;54.10;1.00;;;;;;5070521;28;20446;-63
2022/03/13 11:10:00;;;;;;;6.37;5.80;;;54.70;1.00;;;;;;5070529;28;20468;-63
2022/03/13 11:12:28;;;;;;;6.23;5.63;;;54.80;1.00;;;;;;5070773;28;20451;-64
2022/03/13 11:14:58;;;;;;;6.47;5.73;;;54.80;1.00;;;;;;5066297;28;20464;-63
2022/03/13 11:17:28;;;;;;;6.13;5.53;;;54.50;1.00;;;;;;5069849;28;20455;-62
2022/03/13 11:19:57;;;;;;;6.67;6.07;;;54.20;1.00;;;;;;5069836;28;20476;-63
2022/03/13 11:22:27;;;;;;;7.40;6.53;;;54.50;1.00;;;;;;5066594;28;20460;-63
2022/03/13 11:24:57;;;;;;;6.77;6.17;;;54.70;1.00;;;;;;5069871;28;20436;-63
2022/03/13 11:27:26;;;;;;;5.90;5.40;;;54.70;1.00;;;;;;5070699;28;20432;-65
2022/03/13 11:29:54;;;;;;;6.77;6.17;;;54.70;1.00;;;;;;5069527;28;20939;-63
2022/03/13 11:32:40;;;;;;;5.80;5.20;;;54.90;1.00;;;;;;5070534;28;20545;-63
2022/03/13 11:35:27;;;;;;;6.03;5.53;;;54.60;1.00;;;;;;5070624;28;20439;-62
2022/03/13 11:38:15;;;;;;;5.43;4.93;;;54.40;1.00;;;;;;5070013;28;20471;-64
2022/03/13 11:40:43;;;;;;;6.27;5.67;;;54.00;1.00;;;;;;5069122;28;20846;-63
2022/03/13 11:43:12;;;;;;;6.47;5.87;;;53.90;1.00;;;;;;5070326;28;20516;-62
2022/03/13 11:45:41;;;;;;;5.60;5.00;;;53.90;1.00;;;;;;5070556;28;20518;-62
2022/03/13 11:48:37;;;;;;;6.80;6.20;;;53.60;1.00;;;;;;5070400;28;20438;-63
2022/03/13 11:51:05;;;;;;;5.60;5.03;;;53.60;1.00;;;;;;5045661;28;20447;-63
2022/03/13 11:53:44;;;;;;;6.87;6.27;;;54.10;1.00;;;;;;5070478;28;20430;-62
2022/03/13 11:56:13;;;;;;;5.73;5.13;;;54.00;1.00;;;;;;5070287;28;20888;-64
2022/03/13 11:58:43;;;;;;;6.13;5.57;;;53.70;1.00;;;;;;5070276;28;20435;-63
2022/03/13 12:01:12;;;;;;;6.73;6.03;;;53.10;1.00;;;;;;5070073;28;20595;-63
2022/03/13 12:03:39;;;;;;;7.17;6.47;;;52.40;1.00;;;;;;5070290;28;20446;-62
2022/03/13 12:06:06;;;;;;;7.67;7.00;;;51.90;1.00;;;;;;5069570;28;20447;-62
2022/03/13 12:09:06;;;;;;;7.70;7.00;;;51.30;1.00;;;;;;5070269;28;20517;-62
2022/03/13 12:11:40;;;;;;;8.47;7.67;;;51.30;1.00;;;;;;5069543;28;20472;-63
2022/03/13 12:14:08;;;;;;;6.13;5.53;;;51.60;1.00;;;;;;5069878;28;20439;-62
2022/03/13 12:16:36;;;;;;;8.30;7.60;;;51.10;1.00;;;;;;5070130;28;20439;-63
2022/03/13 12:19:03;;;;;;;8.20;7.40;;;50.80;1.00;;;;;;5069874;28;20447;-63
2022/03/13 12:21:31;;;;;;;7.83;7.17;;;50.80;1.00;;;;;;5070450;28;20488;-62
2022/03/13 12:24:13;;;;;;;8.03;7.20;;;50.60;1.00;;;;;;5069530;28;20444;-63
2022/03/13 12:26:40;;;;;;;7.20;6.50;;;50.70;1.00;;;;;;5070256;28;20440;-62
2022/03/13 12:29:08;;;;;;;9.40;7.77;;;50.40;1.00;;;;;;5069401;28;20526;-62
2022/03/13 12:31:40;;;;;;;6.93;6.33;;;50.30;1.00;;;;;;5070112;28;20825;-62
2022/03/13 12:34:07;;;;;;;7.60;6.90;;;50.20;1.00;;;;;;5069837;28;20464;-63
2022/03/13 12:36:37;;;;;;;7.80;7.03;;;50.10;1.00;;;;;;5070217;28;20443;-66
2022/03/13 12:39:11;;;;;;;8.47;7.67;;;50.20;1.00;;;;;;5069937;28;20432;-62
2022/03/13 12:41:44;;;;;;;6.27;5.67;;;50.50;1.00;;;;;;5073278;28;20481;-62
2022/03/13 12:44:13;;;;;;;7.30;6.60;;;50.20;1.00;;;;;;5075079;28;20440;-62
2022/03/13 12:46:41;;;;;;;7.70;7.00;;;49.50;1.00;;;;;;5075661;28;20442;-62
2022/03/13 12:49:12;;;;;;;7.20;6.50;;;49.10;1.00;;;;;;5075887;28;20516;-62